KTCS/TCS METAR and TAF weather

Enter ICAO airport designator
Station Type Date Time Source
KTCS METAR 2019/02/16 16:53 UTC NOAA

KTCS 161653Z AUTO 24022G31KT 10SM CLR 13/M04 A2979 RMK AO2 PK WND 24031/1653 SLP037 T01331039


Station Type Date Time Source
KTCS Decoded METAR 2019/02/16 16:53 UTC NOAA

TRUTH OR CONSEQUENCES MUNI, NM, United States (KTCS) 33-14N 107-16W 1469M
Feb 16, 2019 - 11:53 AM EST / 2019.02.16 1653 UTC
Wind: from the WSW (240 degrees) at 25 MPH (22 KT) gusting to 36 MPH (31 KT):0
Visibility: 10 mile(s):0
Sky conditions: clear
Temperature: 55.9 F (13.3 C)
Dew Point: 25.0 F (-3.9 C)
Relative Humidity: 29%
Pressure (altimeter): 29.79 in. Hg (1008 hPa)
ob: KTCS 161653Z AUTO 24022G31KT 10SM CLR 13/M04 A2979 RMK AO2 PK WND 24031/1653 SLP037 T01331039
cycle: 17

Station Type Date Time Source
KTCS TAF 2019/02/16 18:28 UTC NOAA

TAF KTCS 161725Z 1618/1718 25025G35KT P6SM FEW120 BKN250
FM170300 27015G25KT P6SM FEW250
FM171000 30011KT P6SM FEW250


Example: see airport list